This is the latest recevied weather packets stored in our database for station/object SV6LWW-11. If no packets are shown the sender has not sent any weather packets the latest 10 day(s).
| Time | Temp. | Humidity | Pressure | Rain* | Wind** | Luminosity | Snow |
|---|---|---|---|---|---|---|---|
| 1777421647 | 21.11° C | 55% | 1025.3 hPa | - | - | - | - |
| 1777420747 | 21.11° C | 55% | 1025.4 hPa | - | - | - | - |
| 1777419847 | 21.67° C | 54% | 1025.5 hPa | - | - | - | - |
| 1777418947 | 21.67° C | 54% | 1025.6 hPa | - | - | - | - |
| 1777418047 | 21.67° C | 53% | 1025.6 hPa | - | - | - | - |
| 1777417147 | 22.22° C | 53% | 1025.6 hPa | - | - | - | - |
| 1777416246 | 22.78° C | 53% | 1025.5 hPa | - | - | - | - |
| 1777415345 | 22.78° C | 51% | 1025.6 hPa | - | - | - | - |
| 1777414449 | 23.89° C | 48% | 1025.6 hPa | - | - | - | - |
| 1777413549 | 25° C | 42% | 1025.6 hPa | - | - | - | - |
| 1777412649 | 25.56° C | 42% | 1025.5 hPa | - | - | - | - |
| 1777411749 | 25.56° C | 42% | 1025.5 hPa | - | - | - | - |
| 1777410849 | 25.56° C | 42% | 1025.5 hPa | - | - | - | - |
| 1777409948 | 25.56° C | 42% | 1025.3 hPa | - | - | - | - |
| 1777409048 | 25.56° C | 43% | 1025.4 hPa | - | - | - | - |
| 1777408148 | 25.56° C | 43% | 1025.2 hPa | - | - | - | - |
| 1777407248 | 26.11° C | 43% | 1025.2 hPa | - | - | - | - |
| 1777406348 | 25° C | 46% | 1025.3 hPa | - | - | - | - |
| 1777405448 | 25° C | 46% | 1025.2 hPa | - | - | - | - |
| 1777404548 | 25° C | 48% | 1024.9 hPa | - | - | - | - |
| 1777403648 | 25° C | 49% | 1025 hPa | - | - | - | - |
| 1777402747 | 24.44° C | 49% | 1025 hPa | - | - | - | - |
| 1777401847 | 24.44° C | 50% | 1024.9 hPa | - | - | - | - |
| 1777400947 | 24.44° C | 47% | 1024.7 hPa | - | - | - | - |
| 1777400047 | 23.89° C | 46% | 1024.6 hPa | - | - | - | - |
* Rain since midnight (hover to see other rain measurements)
** Current wind speed in m/s (hover to see current wind gust speed)